Time;durP1;ratioP1;P1;durP2;ratioP2;P2;SDS_P1;SDS_P2;PMS_P1;PMS_P2;Temp;Humidity;BMP_temperature;BMP_pressure;BME280_temperature;BME280_humidity;BME280_pressure;Samples;Min_cycle;Max_cycle;Signal;HPM_P1;HPM_P2
2023/05/20 00:00:51;;;;;;;7.40;4.60;;;15.80;84.30;;;;;;4984575;28;20034;-54
2023/05/20 00:03:18;;;;;;;5.80;4.75;;;15.80;84.50;;;;;;4984642;28;20408;-54
2023/05/20 00:05:44;;;;;;;8.88;5.38;;;15.70;84.40;;;;;;4984202;28;20125;-54
2023/05/20 00:08:10;;;;;;;8.48;5.30;;;15.70;84.40;;;;;;4984197;28;20031;-54
2023/05/20 00:10:35;;;;;;;6.82;5.60;;;15.70;84.40;;;;;;4985500;28;20027;-54
2023/05/20 00:13:01;;;;;;;7.22;5.90;;;15.70;84.50;;;;;;4985895;28;20118;-54
2023/05/20 00:15:27;;;;;;;7.05;5.38;;;15.70;84.50;;;;;;4984386;28;20126;-54
2023/05/20 00:17:53;;;;;;;6.55;5.28;;;15.70;84.60;;;;;;4964359;28;20087;-54
2023/05/20 00:20:18;;;;;;;6.35;5.50;;;15.70;84.60;;;;;;4977157;28;20030;-54
2023/05/20 00:22:44;;;;;;;7.68;5.82;;;15.70;84.70;;;;;;4984266;28;20502;-54
2023/05/20 00:25:10;;;;;;;11.45;6.07;;;15.70;84.70;;;;;;4998968;28;20518;-55
2023/05/20 00:27:35;;;;;;;8.70;6.05;;;15.70;84.80;;;;;;4985000;28;20110;-54
2023/05/20 00:30:01;;;;;;;6.13;5.47;;;15.70;84.80;;;;;;4985048;28;20098;-54
2023/05/20 00:32:27;;;;;;;6.50;5.10;;;15.70;85.00;;;;;;5000373;28;20023;-54
2023/05/20 00:34:58;;;;;;;6.30;5.68;;;15.60;84.90;;;;;;4984419;28;20209;-54
2023/05/20 00:37:24;;;;;;;7.72;5.55;;;15.60;85.00;;;;;;4984054;28;20108;-54
2023/05/20 00:39:50;;;;;;;7.05;6.28;;;15.60;85.80;;;;;;5000158;28;20456;-54
2023/05/20 00:42:22;;;;;;;11.95;6.10;;;15.60;85.10;;;;;;4984905;28;20041;-54
2023/05/20 00:44:48;;;;;;;7.75;6.13;;;15.60;85.20;;;;;;4971431;28;20039;-54
2023/05/20 00:47:17;;;;;;;5.78;5.25;;;15.60;85.20;;;;;;4975311;28;20345;-54
2023/05/20 00:49:46;;;;;;;7.25;6.00;;;15.60;85.20;;;;;;4984093;28;20094;-54
2023/05/20 00:52:11;;;;;;;8.48;5.50;;;15.60;85.30;;;;;;4983504;28;20427;-54
2023/05/20 00:54:38;;;;;;;7.35;5.50;;;15.50;85.30;;;;;;4983951;28;20111;-54
2023/05/20 00:57:05;;;;;;;6.43;5.82;;;15.50;85.40;;;;;;4983250;28;20460;-54
2023/05/20 00:59:30;;;;;;;7.07;5.63;;;15.50;85.50;;;;;;5000143;28;20031;-54
2023/05/20 01:01:56;;;;;;;8.80;5.90;;;15.50;85.60;;;;;;4984219;28;20121;-54
2023/05/20 01:04:21;;;;;;;8.02;6.68;;;15.50;85.60;;;;;;4986973;28;20042;-54
2023/05/20 01:06:48;;;;;;;7.15;6.15;;;15.40;85.70;;;;;;4986801;28;20035;-54
2023/05/20 01:09:14;;;;;;;10.05;6.07;;;15.50;85.90;;;;;;4986819;28;20098;-54
2023/05/20 01:11:47;;;;;;;6.22;5.57;;;15.40;85.70;;;;;;4986818;28;20026;-54
2023/05/20 01:14:12;;;;;;;8.80;6.13;;;15.40;85.70;;;;;;5004023;28;20035;-54
2023/05/20 01:16:38;;;;;;;6.70;6.00;;;15.40;85.90;;;;;;4989166;28;20066;-54
2023/05/20 01:19:03;;;;;;;12.95;6.47;;;15.40;86.00;;;;;;4987740;28;20049;-54
2023/05/20 01:21:29;;;;;;;9.95;6.20;;;15.40;86.00;;;;;;4989395;28;20027;-54
2023/05/20 01:23:55;;;;;;;6.30;5.38;;;15.40;86.10;;;;;;4988028;28;20399;-54
2023/05/20 01:26:21;;;;;;;8.32;5.70;;;15.40;86.10;;;;;;4987865;28;20038;-54
2023/05/20 01:28:46;;;;;;;6.28;5.53;;;15.40;86.20;;;;;;4988440;28;20034;-54
2023/05/20 01:31:20;;;;;;;7.13;5.57;;;15.40;86.20;;;;;;4987664;28;20027;-54
2023/05/20 01:33:45;;;;;;;6.55;5.63;;;15.40;86.20;;;;;;4971355;28;20038;-53
2023/05/20 01:36:11;;;;;;;6.50;4.90;;;15.40;86.30;;;;;;4987708;28;20557;-54
2023/05/20 01:38:36;;;;;;;7.85;5.60;;;15.40;86.30;;;;;;4987417;28;20375;-54
2023/05/20 01:41:03;;;;;;;8.05;5.43;;;15.40;86.40;;;;;;4987272;28;20452;-54
2023/05/20 01:43:29;;;;;;;8.63;5.82;;;15.40;86.40;;;;;;4987489;28;20057;-54
2023/05/20 01:45:54;;;;;;;7.53;5.15;;;15.30;86.40;;;;;;4967905;29;20046;-54
2023/05/20 01:48:20;;;;;;;6.82;5.30;;;15.30;86.60;;;;;;4983941;28;20034;-54
2023/05/20 01:50:45;;;;;;;5.93;5.22;;;15.30;86.70;;;;;;4986960;28;20042;-54
2023/05/20 01:53:12;;;;;;;5.93;5.32;;;15.30;86.90;;;;;;5019024;28;20026;-54
2023/05/20 01:55:37;;;;;;;7.47;5.35;;;15.20;87.00;;;;;;4987821;28;20035;-54
2023/05/20 01:58:03;;;;;;;7.10;5.38;;;15.20;87.00;;;;;;4986536;28;20041;-54
2023/05/20 02:00:29;;;;;;;6.40;5.07;;;15.20;87.20;;;;;;4969592;28;20086;-54
2023/05/20 02:02:55;;;;;;;10.18;5.40;;;15.20;87.30;;;;;;4986357;28;20114;-54
2023/05/20 02:05:20;;;;;;;7.90;5.28;;;15.20;87.30;;;;;;4987731;28;20065;-54
2023/05/20 02:07:46;;;;;;;6.93;5.30;;;15.20;87.50;;;;;;4986838;28;20031;-54
2023/05/20 02:10:11;;;;;;;7.30;6.28;;;15.20;87.60;;;;;;4986287;28;20046;-54
2023/05/20 02:12:37;;;;;;;12.00;7.15;;;15.20;87.60;;;;;;4986449;28;20031;-54
2023/05/20 02:15:03;;;;;;;9.45;7.18;;;15.10;87.50;;;;;;4987347;28;20033;-54
2023/05/20 02:17:28;;;;;;;7.80;6.20;;;15.10;87.60;;;;;;4969801;28;20151;-54
2023/05/20 02:19:54;;;;;;;7.72;6.50;;;15.10;87.60;;;;;;4985060;28;20062;-54
2023/05/20 02:22:20;;;;;;;6.55;5.85;;;15.10;88.30;;;;;;4986027;28;20110;-54
2023/05/20 02:24:45;;;;;;;6.13;5.53;;;15.10;87.70;;;;;;5002774;28;20054;-54
2023/05/20 02:27:11;;;;;;;6.82;5.97;;;15.10;87.80;;;;;;4987308;28;20034;-54
2023/05/20 02:29:37;;;;;;;7.70;5.78;;;15.10;87.90;;;;;;4985382;28;20035;-54
2023/05/20 02:32:03;;;;;;;7.82;5.90;;;15.10;88.00;;;;;;4985042;28;20038;-54
2023/05/20 02:34:30;;;;;;;10.00;5.90;;;15.10;88.10;;;;;;4986464;28;20035;-54
2023/05/20 02:36:56;;;;;;;7.10;5.90;;;15.00;88.20;;;;;;4985098;28;20057;-54
2023/05/20 02:39:21;;;;;;;6.40;5.72;;;15.00;88.30;;;;;;4986266;28;20031;-54
2023/05/20 02:41:47;;;;;;;8.57;5.55;;;15.00;88.40;;;;;;4985860;28;20031;-54
2023/05/20 02:44:13;;;;;;;7.15;5.38;;;15.00;88.50;;;;;;4986817;28;20041;-54
2023/05/20 02:46:38;;;;;;;6.63;5.55;;;15.00;88.50;;;;;;4986039;28;20065;-54
2023/05/20 02:49:04;;;;;;;7.10;5.28;;;15.00;88.70;;;;;;4986060;28;20479;-54
2023/05/20 02:51:32;;;;;;;6.20;5.22;;;15.00;88.80;;;;;;4987048;28;20019;-54
2023/05/20 02:53:58;;;;;;;7.28;5.70;;;14.90;88.80;;;;;;4986502;28;20027;-54
2023/05/20 02:56:23;;;;;;;8.82;5.65;;;14.90;88.80;;;;;;4985299;28;20070;-54
2023/05/20 02:58:49;;;;;;;7.57;5.40;;;14.90;89.00;;;;;;4985473;28;20480;-54
2023/05/20 03:01:15;;;;;;;9.32;5.97;;;14.90;89.10;;;;;;4985110;28;20031;-54
2023/05/20 03:03:41;;;;;;;7.60;5.97;;;14.90;89.30;;;;;;4987247;28;20034;-54
2023/05/20 03:06:06;;;;;;;10.85;6.00;;;14.80;89.40;;;;;;4984609;28;20077;-54
2023/05/20 03:08:35;;;;;;;8.93;5.45;;;14.80;89.60;;;;;;4986111;28;20039;-54
2023/05/20 03:11:00;;;;;;;6.65;5.50;;;14.80;89.50;;;;;;4985448;28;20178;-54
2023/05/20 03:13:26;;;;;;;7.45;5.65;;;14.80;89.60;;;;;;4983531;28;20027;-54
2023/05/20 03:15:51;;;;;;;9.65;5.43;;;14.80;89.60;;;;;;5017042;28;20058;-54
2023/05/20 03:18:17;;;;;;;6.53;5.65;;;14.80;89.80;;;;;;4985233;28;20046;-54
2023/05/20 03:20:42;;;;;;;8.35;5.30;;;14.80;89.90;;;;;;4985697;28;20038;-54
2023/05/20 03:23:08;;;;;;;7.47;5.57;;;14.70;89.90;;;;;;4986253;28;20035;-54
2023/05/20 03:25:34;;;;;;;6.47;5.47;;;14.70;90.00;;;;;;4984392;28;20038;-54
2023/05/20 03:28:00;;;;;;;5.95;4.88;;;14.70;90.10;;;;;;5000690;28;21910;-54
2023/05/20 03:30:26;;;;;;;7.07;4.90;;;14.70;90.10;;;;;;4986415;28;20034;-54
2023/05/20 03:32:52;;;;;;;6.05;4.78;;;14.60;90.10;;;;;;4985944;28;20119;-54
2023/05/20 03:35:18;;;;;;;6.45;4.72;;;14.60;90.20;;;;;;4985062;28;20055;-54
2023/05/20 03:37:43;;;;;;;7.05;4.70;;;14.60;90.30;;;;;;5017019;28;20022;-54
2023/05/20 03:40:09;;;;;;;6.65;4.78;;;14.50;90.40;;;;;;4966163;29;20035;-54
2023/05/20 03:42:35;;;;;;;6.50;4.72;;;14.50;90.40;;;;;;4975994;28;20030;-54
2023/05/20 03:45:01;;;;;;;9.10;5.97;;;14.50;90.50;;;;;;4985856;28;20054;-54
2023/05/20 03:47:27;;;;;;;9.82;5.75;;;14.50;90.60;;;;;;4984616;28;20038;-54
2023/05/20 03:49:52;;;;;;;14.25;7.90;;;14.50;90.70;;;;;;4986369;28;20038;-54
2023/05/20 03:52:18;;;;;;;21.92;8.68;;;14.50;90.70;;;;;;4984050;28;20046;-54
2023/05/20 03:54:43;;;;;;;17.33;7.38;;;14.50;90.80;;;;;;4984680;28;20106;-54
2023/05/20 03:57:09;;;;;;;16.63;7.38;;;14.40;90.80;;;;;;4983901;28;20030;-54
2023/05/20 03:59:35;;;;;;;27.45;8.05;;;14.40;90.90;;;;;;4984532;28;20049;-54
2023/05/20 04:02:01;;;;;;;16.73;6.70;;;14.40;90.90;;;;;;4985191;28;20027;-53
2023/05/20 04:04:27;;;;;;;20.50;7.40;;;14.40;90.90;;;;;;4985140;28;20035;-54
2023/05/20 04:06:53;;;;;;;15.98;6.93;;;14.40;91.00;;;;;;4984507;28;20031;-54
2023/05/20 04:09:19;;;;;;;11.05;6.03;;;14.40;91.20;;;;;;4983057;28;20134;-54
2023/05/20 04:11:44;;;;;;;15.30;6.05;;;14.40;91.30;;;;;;4986064;28;20035;-54
2023/05/20 04:14:10;;;;;;;15.70;6.65;;;14.40;91.20;;;;;;4985173;28;20443;-54
2023/05/20 04:16:36;;;;;;;14.73;6.93;;;14.40;91.20;;;;;;4984153;28;20035;-54
2023/05/20 04:19:02;;;;;;;9.43;6.10;;;14.30;91.20;;;;;;4983310;28;20034;-54
2023/05/20 04:21:28;;;;;;;16.17;6.35;;;14.30;91.20;;;;;;5000628;28;20027;-54
2023/05/20 04:23:53;;;;;;;10.35;5.88;;;14.40;91.20;;;;;;4984532;28;20086;-54
2023/05/20 04:26:19;;;;;;;10.13;5.78;;;14.30;91.20;;;;;;4984981;28;20033;-54
2023/05/20 04:28:47;;;;;;;11.65;7.18;;;14.30;91.30;;;;;;4968259;28;20033;-54
2023/05/20 04:31:13;;;;;;;8.60;5.75;;;14.30;91.20;;;;;;4984549;28;20023;-54
2023/05/20 04:33:38;;;;;;;11.52;5.75;;;14.30;91.20;;;;;;4986201;28;20023;-54
2023/05/20 04:36:05;;;;;;;11.63;5.97;;;14.30;91.20;;;;;;4984358;28;20078;-54
2023/05/20 04:38:31;;;;;;;10.88;5.90;;;14.30;91.20;;;;;;4990604;28;20033;-54
2023/05/20 04:41:00;;;;;;;13.30;5.20;;;14.30;91.20;;;;;;4990420;28;20030;-54
2023/05/20 04:43:28;;;;;;;13.13;5.38;;;14.30;91.20;;;;;;4990712;28;20101;-54
2023/05/20 04:45:56;;;;;;;10.43;5.65;;;14.30;91.20;;;;;;4990457;28;20037;-54
2023/05/20 04:48:22;;;;;;;10.05;5.68;;;14.30;91.30;;;;;;4974867;28;20054;-54
2023/05/20 04:50:48;;;;;;;13.93;5.53;;;14.30;91.30;;;;;;4992318;28;20086;-54
2023/05/20 04:53:17;;;;;;;9.77;5.75;;;14.30;91.40;;;;;;4992148;28;20109;-54
2023/05/20 04:55:44;;;;;;;13.60;5.45;;;14.30;91.40;;;;;;4990524;28;20062;-54
2023/05/20 04:58:16;;;;;;;10.35;5.50;;;14.30;91.40;;;;;;4990773;28;20035;-54
2023/05/20 05:00:44;;;;;;;11.07;5.57;;;14.30;91.40;;;;;;4991801;28;20035;-54
2023/05/20 05:03:13;;;;;;;8.93;5.10;;;14.30;91.40;;;;;;5005994;28;20026;-54
2023/05/20 05:05:39;;;;;;;10.20;5.88;;;14.30;91.30;;;;;;4991820;28;20098;-54
2023/05/20 05:08:05;;;;;;;11.60;5.28;;;14.40;91.40;;;;;;4990425;28;20058;-54
2023/05/20 05:10:31;;;;;;;9.40;5.13;;;14.30;91.30;;;;;;4991584;28;20023;-54
2023/05/20 05:12:57;;;;;;;10.25;5.30;;;14.30;91.40;;;;;;4990363;28;20054;-54
2023/05/20 05:15:22;;;;;;;8.27;5.10;;;14.30;91.40;;;;;;4990511;28;20027;-54
2023/05/20 05:17:48;;;;;;;11.75;4.90;;;14.30;91.40;;;;;;4990541;28;20031;-54
2023/05/20 05:20:14;;;;;;;8.70;4.82;;;14.40;91.40;;;;;;4990995;28;20082;-54
2023/05/20 05:22:40;;;;;;;8.68;5.25;;;14.40;91.40;;;;;;4973091;28;20042;-54
2023/05/20 05:25:07;;;;;;;7.85;5.18;;;14.40;91.70;;;;;;4991403;28;20077;-54
2023/05/20 05:27:32;;;;;;;9.75;4.70;;;14.30;91.40;;;;;;4991386;28;20083;-54
2023/05/20 05:29:58;;;;;;;10.38;4.93;;;14.40;91.40;;;;;;4990260;28;20549;-54
2023/05/20 05:32:23;;;;;;;6.43;5.20;;;14.40;91.40;;;;;;4990730;28;20090;-54
2023/05/20 05:34:49;;;;;;;10.05;5.20;;;14.40;91.40;;;;;;4989552;28;20034;-54
2023/05/20 05:37:15;;;;;;;8.23;5.10;;;14.40;91.40;;;;;;4971300;28;20029;-54
2023/05/20 05:39:40;;;;;;;12.15;5.30;;;14.40;91.40;;;;;;4985293;28;20454;-54
2023/05/20 05:42:06;;;;;;;6.80;5.22;;;14.40;91.40;;;;;;4989576;28;20420;-54
2023/05/20 05:44:31;;;;;;;6.82;5.07;;;14.40;91.50;;;;;;4989992;28;20039;-54
2023/05/20 05:46:57;;;;;;;8.75;5.40;;;14.40;91.50;;;;;;4970879;28;20078;-54
2023/05/20 05:49:22;;;;;;;7.75;5.18;;;14.40;91.40;;;;;;4971568;28;20084;-54
2023/05/20 05:51:49;;;;;;;5.63;4.68;;;14.40;91.50;;;;;;4988762;28;20026;-54
2023/05/20 05:54:15;;;;;;;10.35;5.65;;;14.50;91.50;;;;;;4987532;28;20035;-54
2023/05/20 05:56:40;;;;;;;6.70;5.03;;;14.50;91.60;;;;;;4971213;28;20141;-54
2023/05/20 05:59:06;;;;;;;7.15;5.32;;;14.50;91.60;;;;;;4987906;28;20042;-54
2023/05/20 06:01:32;;;;;;;6.90;5.65;;;14.50;91.60;;;;;;4987606;28;20033;-54
2023/05/20 06:03:57;;;;;;;9.10;5.57;;;14.40;91.60;;;;;;4986977;28;20141;-54
2023/05/20 06:06:23;;;;;;;9.07;5.45;;;14.50;91.60;;;;;;4986733;28;20042;-54
2023/05/20 06:08:48;;;;;;;8.25;5.13;;;14.50;91.60;;;;;;4987862;28;20487;-54
2023/05/20 06:11:32;;;;;;;7.07;6.05;;;14.50;91.90;;;;;;4986596;28;20516;-54
2023/05/20 06:13:58;;;;;;;6.57;5.47;;;14.50;91.70;;;;;;4987253;28;20042;-54
2023/05/20 06:16:24;;;;;;;8.18;6.18;;;14.50;91.70;;;;;;5002385;28;20050;-54
2023/05/20 06:18:50;;;;;;;9.88;6.28;;;14.50;91.70;;;;;;4986380;28;20054;-54
2023/05/20 06:21:15;;;;;;;6.93;5.45;;;14.50;91.80;;;;;;4986668;28;20030;-52
2023/05/20 06:23:41;;;;;;;6.28;5.25;;;14.60;91.80;;;;;;4986694;28;20039;-54
2023/05/20 06:26:07;;;;;;;10.52;6.05;;;14.50;91.70;;;;;;4987078;28;20450;-54
2023/05/20 06:28:32;;;;;;;7.15;5.57;;;14.60;91.70;;;;;;4967384;28;20035;-54
2023/05/20 06:30:58;;;;;;;7.28;5.32;;;14.60;91.70;;;;;;4981829;28;20039;-54
2023/05/20 06:33:27;;;;;;;7.38;5.60;;;14.60;91.70;;;;;;4988080;28;20027;-54
2023/05/20 06:35:53;;;;;;;6.15;4.95;;;14.70;91.70;;;;;;4987706;28;20034;-54
2023/05/20 06:38:19;;;;;;;7.30;5.43;;;14.70;91.70;;;;;;4986330;28;20045;-54
2023/05/20 06:40:45;;;;;;;7.65;5.60;;;14.70;91.60;;;;;;4986094;28;20050;-54
2023/05/20 06:43:10;;;;;;;9.02;5.50;;;14.70;91.50;;;;;;4986238;28;20118;-54
2023/05/20 06:45:36;;;;;;;8.88;5.93;;;14.70;91.70;;;;;;4985474;28;20031;-54
2023/05/20 06:48:01;;;;;;;9.52;5.53;;;14.70;91.50;;;;;;4984194;28;20062;-54
2023/05/20 06:50:27;;;;;;;7.68;5.72;;;14.70;91.40;;;;;;4986451;28;20137;-54
2023/05/20 06:52:53;;;;;;;7.25;5.70;;;14.80;91.50;;;;;;4987113;28;20189;-54
2023/05/20 06:55:18;;;;;;;6.65;5.40;;;14.80;91.40;;;;;;4987095;28;20035;-54
2023/05/20 06:57:44;;;;;;;8.25;5.82;;;14.80;91.40;;;;;;5017910;28;20535;-54
2023/05/20 07:00:10;;;;;;;6.22;5.57;;;14.80;91.40;;;;;;4986638;28;20034;-54
2023/05/20 07:02:36;;;;;;;8.27;6.05;;;14.80;91.50;;;;;;4986192;28;20067;-54
2023/05/20 07:05:02;;;;;;;9.02;6.28;;;14.80;91.60;;;;;;4987053;28;20035;-54
2023/05/20 07:07:27;;;;;;;7.63;6.47;;;14.80;91.60;;;;;;4986911;28;20063;-54
2023/05/20 07:09:53;;;;;;;8.75;6.60;;;14.80;91.60;;;;;;4987509;28;20448;-54
2023/05/20 07:12:19;;;;;;;6.70;6.00;;;14.90;91.70;;;;;;4985542;28;20101;-54
2023/05/20 07:14:44;;;;;;;10.05;6.57;;;14.90;91.70;;;;;;4985097;28;20041;-54
2023/05/20 07:17:11;;;;;;;7.45;6.35;;;14.90;91.70;;;;;;4986325;28;20039;-54
2023/05/20 07:19:37;;;;;;;8.30;6.72;;;14.90;91.70;;;;;;4985711;28;20130;-54
2023/05/20 07:22:02;;;;;;;8.27;7.30;;;14.90;91.80;;;;;;4986277;28;20031;-54
2023/05/20 07:24:28;;;;;;;8.43;7.13;;;15.00;91.90;;;;;;4986503;28;20034;-54
2023/05/20 07:26:53;;;;;;;11.15;7.18;;;15.00;92.00;;;;;;4986471;28;20126;-54
2023/05/20 07:29:19;;;;;;;8.32;6.43;;;15.00;91.90;;;;;;4986311;28;20085;-54
2023/05/20 07:31:44;;;;;;;8.48;6.30;;;15.00;91.80;;;;;;4986531;28;20050;-54
2023/05/20 07:34:10;;;;;;;9.02;7.00;;;15.00;91.80;;;;;;4985192;28;20468;-54
2023/05/20 07:36:36;;;;;;;7.22;6.40;;;15.10;91.80;;;;;;4985124;28;20464;-54
2023/05/20 07:39:02;;;;;;;7.60;6.38;;;15.10;91.70;;;;;;4966207;28;20030;-54
2023/05/20 07:41:27;;;;;;;8.60;6.72;;;15.10;91.60;;;;;;4984035;28;20034;-54
2023/05/20 07:43:53;;;;;;;7.63;6.25;;;15.20;91.50;;;;;;4991639;28;20040;-54
2023/05/20 07:46:18;;;;;;;8.20;7.40;;;15.10;91.40;;;;;;4988162;28;20038;-54
2023/05/20 07:48:44;;;;;;;8.30;7.50;;;15.20;91.40;;;;;;4982819;28;20039;-54
2023/05/20 07:51:10;;;;;;;16.80;6.60;;;15.20;91.80;;;;;;4986036;28;20019;-54
2023/05/20 07:53:36;;;;;;;8.30;7.50;;;15.30;92.00;;;;;;4984700;28;20035;-54
2023/05/20 07:56:02;;;;;;;8.52;7.18;;;15.30;91.90;;;;;;4983313;28;20023;-54
2023/05/20 07:58:27;;;;;;;7.35;6.50;;;15.30;92.00;;;;;;4967469;28;20351;-54
2023/05/20 08:00:53;;;;;;;8.82;7.20;;;15.30;91.90;;;;;;4984420;28;20035;-54
2023/05/20 08:03:20;;;;;;;9.02;7.72;;;15.30;92.00;;;;;;4981959;28;20023;-54
2023/05/20 08:05:46;;;;;;;9.55;7.43;;;15.30;92.00;;;;;;4983610;28;20054;-54
2023/05/20 08:08:12;;;;;;;10.48;8.05;;;15.40;92.20;;;;;;4984315;28;20027;-54
2023/05/20 08:10:37;;;;;;;12.40;7.50;;;15.40;92.20;;;;;;4984814;28;20038;-54
2023/05/20 08:13:03;;;;;;;11.80;7.80;;;15.40;92.10;;;;;;4981994;28;20047;-54
2023/05/20 08:15:28;;;;;;;9.10;7.82;;;15.50;92.20;;;;;;4985397;28;20053;-54
2023/05/20 08:17:54;;;;;;;12.10;7.50;;;15.50;92.20;;;;;;4984004;28;20027;-54
2023/05/20 08:20:19;;;;;;;18.23;7.72;;;15.50;92.20;;;;;;5016610;28;20037;-54
2023/05/20 08:22:46;;;;;;;14.82;7.60;;;15.50;92.20;;;;;;4981849;28;20037;-54
2023/05/20 08:25:11;;;;;;;13.25;7.80;;;15.60;92.20;;;;;;4985662;28;20027;-54
2023/05/20 08:27:37;;;;;;;19.90;8.68;;;15.60;92.30;;;;;;5014041;28;20062;-54
2023/05/20 08:30:03;;;;;;;14.50;8.30;;;15.60;92.40;;;;;;4981199;28;20045;-54
2023/05/20 08:32:29;;;;;;;14.82;7.78;;;15.70;92.40;;;;;;4980793;28;20090;-54
2023/05/20 08:34:55;;;;;;;15.50;7.88;;;15.70;92.40;;;;;;4982535;28;20027;-54
2023/05/20 08:37:20;;;;;;;30.58;9.82;;;15.80;92.40;;;;;;4982658;28;20054;-54
2023/05/20 08:39:48;;;;;;;31.10;9.45;;;15.80;92.50;;;;;;4983233;28;20035;-54
2023/05/20 08:42:13;;;;;;;44.40;10.48;;;15.80;92.60;;;;;;4976514;28;20031;-54
2023/05/20 08:44:39;;;;;;;30.42;10.15;;;15.90;92.60;;;;;;4983837;28;20031;-54
2023/05/20 08:47:05;;;;;;;40.25;9.55;;;15.90;92.60;;;;;;4985277;28;20562;-54
2023/05/20 08:49:31;;;;;;;38.88;11.00;;;15.90;92.30;;;;;;4980484;28;20042;-54
2023/05/20 08:51:57;;;;;;;41.05;10.60;;;16.00;92.60;;;;;;5009278;28;20095;-54
2023/05/20 08:54:24;;;;;;;47.00;10.38;;;16.00;92.80;;;;;;4994424;28;20547;-54
2023/05/20 08:56:49;;;;;;;65.20;11.55;;;16.00;92.90;;;;;;4989203;28;20027;-54
2023/05/20 08:59:15;;;;;;;43.55;10.98;;;16.10;93.00;;;;;;4985648;28;20101;-54
2023/05/20 09:01:44;;;;;;;65.88;13.80;;;16.10;93.00;;;;;;4979897;28;20117;-54
2023/05/20 09:04:10;;;;;;;52.45;12.10;;;16.10;93.00;;;;;;4983243;28;20034;-54
2023/05/20 09:06:45;;;;;;;50.63;12.25;;;16.10;93.00;;;;;;4991516;28;20049;-54
2023/05/20 09:09:14;;;;;;;63.03;12.20;;;16.20;93.20;;;;;;4961269;28;20034;-54
2023/05/20 09:11:40;;;;;;;88.38;15.80;;;16.20;93.10;;;;;;4980971;28;20034;-54
2023/05/20 09:14:06;;;;;;;127.18;18.45;;;16.20;93.10;;;;;;4978461;28;20035;-54
2023/05/20 09:16:32;;;;;;;106.75;17.17;;;16.30;93.20;;;;;;4966020;28;20027;-54
2023/05/20 09:18:57;;;;;;;122.70;17.85;;;16.30;93.40;;;;;;4980264;28;20069;-54
2023/05/20 09:21:29;;;;;;;125.55;17.58;;;16.30;93.20;;;;;;4978475;28;20023;-54
2023/05/20 09:23:58;;;;;;;82.07;14.40;;;16.40;93.20;;;;;;4978480;28;20051;-54
2023/05/20 09:26:28;;;;;;;101.30;15.15;;;16.40;93.00;;;;;;4970238;28;20038;-54
2023/05/20 09:28:56;;;;;;;87.93;17.45;;;16.50;93.20;;;;;;4978454;28;20039;-54
2023/05/20 09:31:27;;;;;;;185.27;24.98;;;16.50;93.00;;;;;;4986908;28;20065;-54
2023/05/20 09:33:53;;;;;;;231.77;29.35;;;16.50;93.00;;;;;;4986480;28;20023;-54
2023/05/20 09:36:18;;;;;;;108.55;18.10;;;16.60;92.90;;;;;;4983065;28;20034;-54
2023/05/20 09:38:44;;;;;;;112.85;18.00;;;16.60;92.80;;;;;;4970456;28;20050;-54
2023/05/20 09:41:11;;;;;;;77.85;14.40;;;16.60;92.80;;;;;;4984995;28;20490;-54
2023/05/20 09:43:39;;;;;;;85.10;13.38;;;16.60;92.70;;;;;;4970378;28;20086;-54
2023/05/20 09:46:05;;;;;;;132.48;18.58;;;16.60;92.40;;;;;;4985673;28;20109;-54
2023/05/20 09:48:31;;;;;;;97.93;17.58;;;16.70;92.30;;;;;;4984171;28;20444;-54
2023/05/20 09:50:56;;;;;;;116.00;17.17;;;16.70;92.50;;;;;;4986227;28;20034;-54
2023/05/20 09:53:25;;;;;;;128.15;19.05;;;16.80;92.60;;;;;;4986768;28;20097;-54
2023/05/20 09:55:51;;;;;;;128.43;22.75;;;16.80;92.50;;;;;;4985926;28;20121;-54
2023/05/20 09:58:17;;;;;;;161.15;20.48;;;16.90;92.50;;;;;;4986335;28;20075;-54
2023/05/20 10:00:42;;;;;;;122.97;18.25;;;17.00;92.40;;;;;;4986768;28;20038;-54
2023/05/20 10:03:08;;;;;;;103.68;16.42;;;17.00;92.10;;;;;;4986241;28;20033;-54
2023/05/20 10:05:40;;;;;;;124.35;17.50;;;17.10;92.00;;;;;;4985785;28;20039;-54
2023/05/20 10:08:28;;;;;;;150.40;22.20;;;17.10;92.00;;;;;;4985892;28;20038;-54
2023/05/20 10:11:05;;;;;;;131.90;19.05;;;17.20;92.00;;;;;;4969725;28;20371;-54
2023/05/20 10:13:37;;;;;;;146.07;22.35;;;17.20;92.10;;;;;;4987296;28;20078;-54
2023/05/20 10:16:31;;;;;;;148.82;21.63;;;17.30;92.00;;;;;;4985581;28;20410;-54
2023/05/20 10:19:06;;;;;;;124.57;18.48;;;17.30;92.00;;;;;;4983135;28;20043;-54
2023/05/20 10:21:31;;;;;;;136.93;19.95;;;17.30;91.90;;;;;;4978909;28;20090;-54
2023/05/20 10:24:07;;;;;;;213.15;25.10;;;17.40;92.00;;;;;;4985957;28;20035;-53
2023/05/20 10:26:40;;;;;;;170.45;23.85;;;17.40;91.80;;;;;;4985655;28;20415;-55
2023/05/20 10:29:16;;;;;;;142.85;19.00;;;17.50;91.90;;;;;;4985897;28;20121;-54
2023/05/20 10:31:48;;;;;;;123.82;20.38;;;17.50;91.80;;;;;;4985915;28;20087;-53
2023/05/20 10:34:15;;;;;;;174.95;24.40;;;17.60;91.80;;;;;;4967005;28;20050;-53
2023/05/20 10:36:44;;;;;;;150.18;23.48;;;17.60;91.60;;;;;;4970073;28;20029;-53
2023/05/20 10:39:15;;;;;;;171.90;25.30;;;17.70;91.60;;;;;;4986358;28;20031;-53
2023/05/20 10:41:40;;;;;;;418.23;44.65;;;17.60;91.60;;;;;;4986407;28;20066;-53
2023/05/20 10:44:06;;;;;;;279.33;28.48;;;17.70;91.60;;;;;;4985715;28;20046;-53
2023/05/20 10:46:32;;;;;;;202.98;24.58;;;17.70;91.60;;;;;;4985183;28;20046;-53
2023/05/20 10:48:58;;;;;;;153.20;22.77;;;17.80;91.60;;;;;;4984372;28;21244;-53
2023/05/20 10:51:24;;;;;;;178.32;23.15;;;17.80;91.50;;;;;;4985271;28;20031;-54
2023/05/20 10:53:52;;;;;;;163.35;22.08;;;17.80;91.40;;;;;;4984598;28;20146;-53
2023/05/20 10:56:25;;;;;;;176.55;24.33;;;17.90;91.60;;;;;;4984676;28;20030;-54
2023/05/20 10:58:51;;;;;;;192.30;24.98;;;17.90;91.60;;;;;;4985129;28;20122;-53
2023/05/20 11:01:18;;;;;;;163.32;25.10;;;17.90;91.70;;;;;;4983984;28;20034;-53
2023/05/20 11:03:46;;;;;;;202.40;28.98;;;17.90;91.50;;;;;;4985301;28;20034;-53
2023/05/20 11:06:15;;;;;;;178.68;24.55;;;18.10;91.50;;;;;;4981058;28;20037;-53
2023/05/20 11:08:41;;;;;;;192.85;25.02;;;18.00;91.40;;;;;;4998587;28;20098;-53
2023/05/20 11:11:07;;;;;;;195.30;25.02;;;18.10;91.30;;;;;;4984258;28;20098;-53
2023/05/20 11:13:32;;;;;;;200.02;26.25;;;18.10;91.30;;;;;;4984079;28;20042;-54
2023/05/20 11:16:00;;;;;;;292.63;36.22;;;18.20;91.20;;;;;;4986649;28;20090;-54
2023/05/20 11:18:31;;;;;;;210.55;26.90;;;18.20;91.10;;;;;;4985137;28;20099;-53
2023/05/20 11:21:00;;;;;;;217.13;27.30;;;18.20;91.10;;;;;;5012183;28;20031;-53
2023/05/20 11:23:27;;;;;;;179.85;24.63;;;18.30;91.00;;;;;;4952667;28;20061;-54
2023/05/20 11:25:53;;;;;;;148.82;22.55;;;18.20;91.00;;;;;;4984632;28;20058;-53
2023/05/20 11:28:20;;;;;;;179.57;24.92;;;18.30;90.70;;;;;;4984302;28;20045;-53
2023/05/20 11:30:45;;;;;;;151.70;23.85;;;18.30;90.60;;;;;;4980822;28;20049;-53
2023/05/20 11:33:11;;;;;;;186.65;25.30;;;18.30;90.70;;;;;;4957447;28;20083;-54
2023/05/20 11:35:43;;;;;;;175.50;25.48;;;18.40;90.70;;;;;;4979326;28;20515;-53
2023/05/20 11:38:09;;;;;;;141.57;21.25;;;18.50;90.80;;;;;;4968725;28;20034;-54
2023/05/20 11:40:34;;;;;;;152.75;20.92;;;18.50;90.60;;;;;;4993538;28;20042;-54
2023/05/20 11:43:01;;;;;;;141.40;20.30;;;18.60;90.30;;;;;;4983712;28;20035;-54
2023/05/20 11:45:26;;;;;;;129.35;19.40;;;18.70;90.20;;;;;;4952130;28;20027;-53
2023/05/20 11:48:02;;;;;;;131.10;19.63;;;18.70;90.10;;;;;;4981474;28;20097;-54
2023/05/20 11:50:28;;;;;;;220.38;28.17;;;18.70;90.00;;;;;;4981779;28;20027;-53
2023/05/20 11:53:01;;;;;;;193.68;25.25;;;18.80;89.80;;;;;;4984204;28;20031;-53
2023/05/20 11:55:26;;;;;;;171.10;23.63;;;18.80;90.00;;;;;;4982676;28;20560;-53
2023/05/20 11:57:53;;;;;;;144.55;21.88;;;18.90;89.50;;;;;;4984964;28;20035;-53
2023/05/20 12:00:18;;;;;;;138.90;21.48;;;18.90;89.30;;;;;;4983125;28;20046;-53
2023/05/20 12:02:44;;;;;;;143.60;20.27;;;18.90;89.50;;;;;;4982442;28;20177;-53
2023/05/20 12:05:10;;;;;;;154.38;20.38;;;19.00;89.40;;;;;;4974445;28;20103;-54
2023/05/20 12:07:35;;;;;;;163.80;22.25;;;19.00;88.80;;;;;;4964228;28;20102;-54
2023/05/20 12:10:02;;;;;;;153.88;19.48;;;19.00;88.90;;;;;;4980767;28;20035;-53
2023/05/20 12:12:28;;;;;;;137.00;20.83;;;19.10;88.90;;;;;;4984302;28;20049;-54
2023/05/20 12:14:53;;;;;;;177.00;22.65;;;19.10;88.90;;;;;;4967694;28;20519;-53
2023/05/20 12:17:19;;;;;;;158.20;21.38;;;19.10;88.70;;;;;;4973599;28;20495;-53
2023/05/20 12:19:44;;;;;;;127.55;18.70;;;19.20;88.40;;;;;;4963006;28;20069;-53
2023/05/20 12:22:10;;;;;;;185.35;26.25;;;19.20;88.00;;;;;;4983110;28;20023;-53
2023/05/20 12:24:35;;;;;;;169.25;23.42;;;19.20;87.90;;;;;;4983706;28;20511;-54
2023/05/20 12:27:02;;;;;;;162.77;23.25;;;19.30;88.20;;;;;;4984035;28;20031;-53
2023/05/20 12:29:28;;;;;;;156.15;22.00;;;19.40;87.80;;;;;;4981480;28;20040;-54
2023/05/20 12:31:54;;;;;;;258.63;33.65;;;19.40;87.40;;;;;;4983721;28;20058;-53